SwedenFixed distance
Trail Genom Skåne TGS 50
18 Aug2024
Distance
50km
Finishers
5649 men7 women
Winning time
3:48:22h
Median pace
8.86km/h
Pace distribution
56 finishers · 6.14–13.14 km/h · mean 9.14
Every finisher ran the same 50 km course, so these paces are directly comparable.
Histogram of finisher pace. 56 finishers ranged from 6.14 to 13.14 kilometres per hour, with a mean of 9.14 and a median of 8.86. The busiest band is 8.0 to 8.5 kilometres per hour, with 11 finishers.
Results
Ranks 1–50 of 56
| Rank | Runner | Time | Pace | Cat. | Placing |
|---|---|---|---|---|---|
| 1 | IS Göta | 3:48:22h | 13.14 | M23 | 1st M · 1st M23 |
| 2 | Umara Sports Club | 4:14:41h | 11.78 | M45 | 2nd M · 1st M45 |
| 3 | IF Kville | 4:15:41h | 11.73 | M35 | 3rd M · 1st M35 |
| 4 | 4:19:31h | 11.56 | M45 | 4th M · 2nd M45 | |
| 5 | Lime Technologies | 4:23:27h | 11.39 | M35 | 5th M · 2nd M35 |
| 6 | Freeflow | 4:27:53h | 11.20 | W45 | 1st F · 1st W45 |
| 7 | IFK Växjö | 4:31:06h | 11.07 | W23 | 2nd F · 1st W23 |
| 8 | 4:31:27h | 11.05 | M35 | 6th M · 3rd M35 | |
| 9 | 4:32:00h | 11.03 | M35 | 7th M · 4th M35 | |
| 10 | Genarps IF | 4:42:01h | 10.64 | M45 | 8th M · 3rd M45 |
| 11 | Härlövs IF | 4:43:57h | 10.56 | W35 | 3rd F · 1st W35 |
| 12 | 4:47:31h | 10.43 | M40 | 9th M · 1st M40 | |
| 13 | 4:48:39h | 10.39 | M23 | 10th M · 2nd M23 | |
| 14 | Tetra PAK IF | 4:54:59h | 10.17 | M50 | 11th M · 1st M50 |
| 15 | AG'85 | 4:56:49h | 10.11 | M45 | 12th M · 4th M45 |
| 16 | Räddningstjänsten SYD | 4:59:14h | 10.03 | M35 | 13th M · 5th M35 |
| 17 | Umara Sports Club | 4:59:51h | 10.01 | W40 | 4th F · 1st W40 |
| 18 | Thule | 5:07:18h | 9.76 | M45 | 14th M · 5th M45 |
| 19 | 5:07:54h | 9.74 | M40 | 15th M · 2nd M40 | |
| 20 | Vegan Runners IK | 5:08:39h | 9.72 | M23 | 16th M · 3rd M23 |
| 21 | 5:15:17h | 9.52 | M35 | 17th M · 6th M35 | |
| 22 | 5:17:13h | 9.46 | M35 | 18th M · 7th M35 | |
| 23 | Malmö Gerillalöpare | 5:23:22h | 9.28 | M23 | 19th M · 4th M23 |
| 24 | Kyrkoby Ultra Runners | 5:24:22h | 9.25 | M45 | 20th M · 6th M45 |
| 25 | Tetra PAK IF | 5:25:44h | 9.21 | W23 | 5th F · 2nd W23 |
| 26 | SV Milchsäure | 5:35:34h | 8.94 | M23 | 21st M · 5th M23 |
| 27 | Umara Sport Club | 5:37:03h | 8.90 | M55 | 22nd M · 1st M55 |
| 28 | LA Familia LON | 5:37:35h | 8.89 | M45 | 23rd M · 7th M45 |
| 29 | Hörby Flatfooters | 5:38:27h | 8.86 | M50 | 24th M · 2nd M50 |
| 30 | OK Pan-Kristianstad | 5:40:56h | 8.80 | M45 | 25th M · 8th M45 |
| 31 | Frosta Multisport | 5:47:07h | 8.64 | M45 | 26th M · 9th M45 |
| 32 | 5:48:04h | 8.62 | M35 | 27th M · 8th M35 | |
| 33 | Karlewi AB | 5:52:03h | 8.52 | M45 | 28th M · 10th M45 |
| 34 | Karlewi | 5:52:04h | 8.52 | MU23 | 29th M · 1st MU23 |
| 35 | 5:54:41h | 8.46 | M23 | 30th M · 6th M23 | |
| 36 | 5:55:48h | 8.43 | M23 | 31st M · 7th M23 | |
| 37 | 5:57:10h | 8.40 | M35 | 32nd M · 9th M35 | |
| 38 | Tetra PAK IF | 5:57:57h | 8.38 | M35 | 33rd M · 10th M35 |
| 39 | 6:03:30h | 8.25 | M23 | 34th M · 8th M23 | |
| 40 | M² | 6:05:59h | 8.20 | M40 | 35th M · 3rd M40 |
| 41 | Tetra PAK IF | 6:08:40h | 8.14 | M50 | 36th M · 3rd M50 |
| 42 | 6:09:58h | 8.11 | M23 | 37th M · 9th M23 | |
| 43 | Björnstorps IF | 6:12:09h | 8.06 | W35 | 6th F · 2nd W35 |
| 44 | Steget Efter | 6:12:39h | 8.05 | M50 | 38th M · 4th M50 |
| 45 | Umara SC | 6:14:34h | 8.01 | M35 | 39th M · 11th M35 |
| 46 | M² | 6:15:22h | 7.99 | M35 | 40th M · 12th M35 |
| 47 | 6:20:09h | 7.89 | M40 | 41st M · 4th M40 | |
| 48 | 6:26:09h | 7.77 | M23 | 42nd M · 10th M23 | |
| 49 | 6:30:27h | 7.68 | W40 | 7th F · 2nd W40 | |
| 50 | Träna OCH Skräna | 6:32:33h | 7.64 | M40 | 43rd M · 5th M40 |
- 1IS Göta1st M · 1st M23Time3:48:22hPace13.14Cat.M23
- 2Umara Sports Club2nd M · 1st M45Time4:14:41hPace11.78Cat.M45
- 3IF Kville3rd M · 1st M35Time4:15:41hPace11.73Cat.M35
- 44th M · 2nd M45Time4:19:31hPace11.56Cat.M45
- 5Lime Technologies5th M · 2nd M35Time4:23:27hPace11.39Cat.M35
- 6Freeflow1st F · 1st W45Time4:27:53hPace11.20Cat.W45
- 7IFK Växjö2nd F · 1st W23Time4:31:06hPace11.07Cat.W23
- 86th M · 3rd M35Time4:31:27hPace11.05Cat.M35
- 97th M · 4th M35Time4:32:00hPace11.03Cat.M35
- 10Genarps IF8th M · 3rd M45Time4:42:01hPace10.64Cat.M45
- 11Härlövs IF3rd F · 1st W35Time4:43:57hPace10.56Cat.W35
- 129th M · 1st M40Time4:47:31hPace10.43Cat.M40
- 1310th M · 2nd M23Time4:48:39hPace10.39Cat.M23
- 14Tetra PAK IF11th M · 1st M50Time4:54:59hPace10.17Cat.M50
- 15AG'8512th M · 4th M45Time4:56:49hPace10.11Cat.M45
- 16Räddningstjänsten SYD13th M · 5th M35Time4:59:14hPace10.03Cat.M35
- 17Umara Sports Club4th F · 1st W40Time4:59:51hPace10.01Cat.W40
- 18Thule14th M · 5th M45Time5:07:18hPace9.76Cat.M45
- 1915th M · 2nd M40Time5:07:54hPace9.74Cat.M40
- 20Vegan Runners IK16th M · 3rd M23Time5:08:39hPace9.72Cat.M23
- 2117th M · 6th M35Time5:15:17hPace9.52Cat.M35
- 2218th M · 7th M35Time5:17:13hPace9.46Cat.M35
- 23Malmö Gerillalöpare19th M · 4th M23Time5:23:22hPace9.28Cat.M23
- 24Kyrkoby Ultra Runners20th M · 6th M45Time5:24:22hPace9.25Cat.M45
- 25Tetra PAK IF5th F · 2nd W23Time5:25:44hPace9.21Cat.W23
- 26SV Milchsäure21st M · 5th M23Time5:35:34hPace8.94Cat.M23
- 27Umara Sport Club22nd M · 1st M55Time5:37:03hPace8.90Cat.M55
- 28LA Familia LON23rd M · 7th M45Time5:37:35hPace8.89Cat.M45
- 29Hörby Flatfooters24th M · 2nd M50Time5:38:27hPace8.86Cat.M50
- 30OK Pan-Kristianstad25th M · 8th M45Time5:40:56hPace8.80Cat.M45
- 31Frosta Multisport26th M · 9th M45Time5:47:07hPace8.64Cat.M45
- 3227th M · 8th M35Time5:48:04hPace8.62Cat.M35
- 33Karlewi AB28th M · 10th M45Time5:52:03hPace8.52Cat.M45
- 34Karlewi29th M · 1st MU23Time5:52:04hPace8.52Cat.MU23
- 3530th M · 6th M23Time5:54:41hPace8.46Cat.M23
- 3631st M · 7th M23Time5:55:48hPace8.43Cat.M23
- 3732nd M · 9th M35Time5:57:10hPace8.40Cat.M35
- 38Tetra PAK IF33rd M · 10th M35Time5:57:57hPace8.38Cat.M35
- 3934th M · 8th M23Time6:03:30hPace8.25Cat.M23
- 40M²35th M · 3rd M40Time6:05:59hPace8.20Cat.M40
- 41Tetra PAK IF36th M · 3rd M50Time6:08:40hPace8.14Cat.M50
- 4237th M · 9th M23Time6:09:58hPace8.11Cat.M23
- 43Björnstorps IF6th F · 2nd W35Time6:12:09hPace8.06Cat.W35
- 44Steget Efter38th M · 4th M50Time6:12:39hPace8.05Cat.M50
- 45Umara SC39th M · 11th M35Time6:14:34hPace8.01Cat.M35
- 46M²40th M · 12th M35Time6:15:22hPace7.99Cat.M35
- 4741st M · 4th M40Time6:20:09hPace7.89Cat.M40
- 4842nd M · 10th M23Time6:26:09hPace7.77Cat.M23
- 497th F · 2nd W40Time6:30:27hPace7.68Cat.W40
- 50Träna OCH Skräna43rd M · 5th M40Time6:32:33hPace7.64Cat.M40
Showing ranks 1–50 of 56